Time;durP1;ratioP1;P1;durP2;ratioP2;P2;SDS_P1;SDS_P2;PMS_P1;PMS_P2;Temp;Humidity;BMP_temperature;BMP_pressure;BME280_temperature;BME280_humidity;BME280_pressure;Samples;Min_cycle;Max_cycle;Signal;HPM_P1;HPM_P2
2023/02/27 00:02:18;;;;;;;9.77;2.75;;;;;;;-1.96;100.00;102646.00;7397868;19;20146;-41
2023/02/27 00:04:49;;;;;;;7.65;2.40;;;;;;;-1.97;100.00;102644.22;7397771;19;20679;-42
2023/02/27 00:07:18;;;;;;;6.20;3.13;;;;;;;-1.94;100.00;102644.59;7398462;19;20249;-44
2023/02/27 00:09:48;;;;;;;6.20;3.33;;;;;;;-1.94;100.00;102639.53;7398243;19;20213;-40
2023/02/27 00:12:17;;;;;;;6.30;2.63;;;;;;;-1.93;100.00;102638.81;7394600;19;20163;-42
2023/02/27 00:14:46;;;;;;;7.60;2.70;;;;;;;-1.95;100.00;102642.78;7397650;19;20657;-41
2023/02/27 00:17:18;;;;;;;6.60;3.13;;;;;;;-1.92;100.00;102646.59;7397953;19;20157;-44
2023/02/27 00:19:48;;;;;;;13.35;3.35;;;;;;;-1.94;100.00;102647.13;7397330;19;20298;-41
2023/02/27 00:22:17;;;;;;;8.75;3.03;;;;;;;-1.90;100.00;102642.63;7397109;19;20171;-41
2023/02/27 00:24:47;;;;;;;5.03;2.40;;;;;;;-1.91;100.00;102644.97;7397515;19;20215;-42
2023/02/27 00:27:16;;;;;;;8.82;2.90;;;;;;;-1.95;100.00;102637.75;7397750;19;20146;-37
2023/02/27 00:29:45;;;;;;;5.43;2.97;;;;;;;-1.93;100.00;102641.34;7397178;19;20214;-43
2023/02/27 00:32:15;;;;;;;5.35;2.17;;;;;;;-1.88;100.00;102645.34;7396685;19;20643;-44
2023/02/27 00:34:47;;;;;;;8.30;2.70;;;;;;;-1.83;100.00;102640.84;7394703;19;20194;-42
2023/02/27 00:37:17;;;;;;;4.25;2.22;;;;;;;-1.84;100.00;102639.94;7397466;19;20135;-41
2023/02/27 00:39:46;;;;;;;5.38;2.10;;;;;;;-1.85;100.00;102643.19;7396134;19;20186;-42
2023/02/27 00:42:16;;;;;;;7.70;2.42;;;;;;;-1.83;100.00;102643.38;7396600;19;20139;-44
2023/02/27 00:44:45;;;;;;;7.38;2.70;;;;;;;-1.84;100.00;102644.09;7394743;19;20218;-45
2023/02/27 00:47:14;;;;;;;9.15;2.95;;;;;;;-1.82;100.00;102646.09;7396896;19;20149;-41
2023/02/27 00:49:46;;;;;;;9.77;2.50;;;;;;;-1.83;100.00;102649.34;7394392;19;20198;-42
2023/02/27 00:52:16;;;;;;;4.63;2.28;;;;;;;-1.80;100.00;102644.66;7396269;19;20490;-42
2023/02/27 00:54:45;;;;;;;5.47;2.20;;;;;;;-1.72;100.00;102649.75;7397066;19;20188;-42
2023/02/27 00:57:15;;;;;;;4.35;2.25;;;;;;;-1.78;100.00;102640.66;7396291;19;20149;-41
2023/02/27 00:59:45;;;;;;;5.78;1.88;;;;;;;-1.79;100.00;102645.56;7392489;19;20667;-42
2023/02/27 01:02:15;;;;;;;8.35;2.70;;;;;;;-1.84;100.00;102651.69;7396172;19;20134;-42
2023/02/27 01:04:47;;;;;;;9.23;2.22;;;;;;;-1.85;100.00;102654.94;7392141;19;20688;-41
2023/02/27 01:07:16;;;;;;;22.23;3.13;;;;;;;-1.90;100.00;102651.81;7396393;19;20163;-40
2023/02/27 01:09:45;;;;;;;9.43;4.20;;;;;;;-1.32;100.00;102661.25;7395635;19;20190;-41
2023/02/27 01:12:15;;;;;;;7.30;2.85;;;;;;;-1.28;100.00;102665.97;7395122;19;20179;-42
2023/02/27 01:14:45;;;;;;;13.23;3.30;;;;;;;-1.64;100.00;102666.78;7393671;19;20197;-44
2023/02/27 01:17:17;;;;;;;7.70;2.60;;;;;;;-1.88;100.00;102673.19;7394275;19;20139;-40
2023/02/27 01:19:49;;;;;;;7.93;2.72;;;;;;;-2.09;100.00;102663.84;7395591;19;20182;-41
2023/02/27 01:22:19;;;;;;;5.72;2.75;;;;;;;-2.17;100.00;102665.44;7395312;19;20150;-41
2023/02/27 01:24:48;;;;;;;9.63;2.92;;;;;;;-2.44;100.00;102661.28;7395583;19;20186;-39
2023/02/27 01:27:18;;;;;;;8.60;2.58;;;;;;;-2.29;100.00;102674.03;7395868;19;20143;-38
2023/02/27 01:29:47;;;;;;;4.75;2.63;;;;;;;-2.27;100.00;102672.63;7395590;19;20182;-40
2023/02/27 01:32:16;;;;;;;6.93;2.83;;;;;;;-2.38;100.00;102666.19;7393311;19;20146;-42
2023/02/27 01:34:49;;;;;;;6.57;2.10;;;;;;;-2.45;100.00;102662.91;7395105;19;20204;-43
2023/02/27 01:37:19;;;;;;;7.70;2.90;;;;;;;-2.37;100.00;102668.03;7395595;19;20595;-41
2023/02/27 01:39:48;;;;;;;7.43;2.65;;;;;;;-2.27;100.00;102670.09;7394616;19;20646;-47
2023/02/27 01:42:21;;;;;;;8.32;2.70;;;;;;;-2.51;100.00;102672.25;7392557;19;20147;-41
2023/02/27 01:45:26;;;;;;;5.07;2.65;;;;;;;-2.73;100.00;102666.13;7391536;19;20196;-41
2023/02/27 01:47:59;;;;;;;10.02;2.70;;;;;;;-2.73;100.00;102672.09;7392095;19;20551;-41
2023/02/27 01:50:32;;;;;;;8.80;4.25;;;;;;;-2.86;100.00;102679.72;7394304;19;20170;-41
2023/02/27 01:53:03;;;;;;;6.30;3.30;;;;;;;-2.85;100.00;102678.13;7391895;19;20561;-43
2023/02/27 01:55:36;;;;;;;4.78;2.80;;;;;;;-2.85;100.00;102684.09;7394051;19;20510;-45
2023/02/27 01:58:07;;;;;;;7.07;2.97;;;;;;;-2.20;100.00;102701.38;7390785;19;21336;-37
2023/02/27 02:00:36;;;;;;;8.48;3.00;;;;;;;-1.99;100.00;102706.38;7395137;19;20170;-42
2023/02/27 02:03:30;;;;;;;6.25;3.10;;;;;;;-1.75;100.00;102715.19;7389222;19;20218;-42
2023/02/27 02:06:04;;;;;;;7.55;3.15;;;;;;;-1.41;100.00;102711.72;7395384;19;20135;-39
2023/02/27 02:08:37;;;;;;;9.27;2.70;;;;;;;-1.67;100.00;102707.81;7391198;19;20589;-44
2023/02/27 02:11:07;;;;;;;15.93;3.58;;;;;;;-1.51;100.00;102712.22;7391417;19;20171;-43
2023/02/27 02:13:38;;;;;;;12.93;3.97;;;;;;;-1.60;100.00;102709.47;7389275;19;20285;-43
2023/02/27 02:16:17;;;;;;;7.93;2.90;;;;;;;-1.21;100.00;102711.59;7395381;19;20154;-41
2023/02/27 02:18:53;;;;;;;9.68;3.08;;;;;;;-1.03;100.00;102707.81;7390983;19;20198;-40
2023/02/27 02:21:54;;;;;;;5.22;2.83;;;;;;;-0.98;100.00;102716.88;7392240;19;20166;-41
2023/02/27 02:24:48;;;;;;;8.25;2.92;;;;;;;-1.05;100.00;102723.56;7389989;19;20204;-44
2023/02/27 02:27:28;;;;;;;4.70;2.50;;;;;;;-1.45;100.00;102724.75;7393587;19;20936;-41
2023/02/27 02:30:48;;;;;;;8.98;2.90;;;;;;;-1.98;100.00;102723.38;7393592;19;20548;-40
2023/02/27 02:33:40;;;;;;;5.43;2.53;;;;;;;-2.15;100.00;102722.19;7384960;19;20282;-39
2023/02/27 02:36:36;;;;;;;6.47;2.38;;;;;;;-1.89;100.00;102729.59;7394959;19;20138;-39
2023/02/27 02:39:24;;;;;;;6.88;3.00;;;;;;;-1.60;100.00;102727.19;7388085;19;20190;-42
2023/02/27 02:42:01;;;;;;;9.45;2.85;;;;;;;-1.27;100.00;102721.00;7392306;19;20936;-42
2023/02/27 02:44:38;;;;;;;8.93;2.88;;;;;;;-1.09;100.00;102724.81;7389380;19;20193;-40
2023/02/27 02:47:12;;;;;;;9.40;3.25;;;;;;;-1.32;100.00;102717.00;7394188;19;20138;-42
2023/02/27 02:49:46;;;;;;;6.50;3.50;;;;;;;-1.30;100.00;102715.53;7390236;19;20196;-38
2023/02/27 02:52:23;;;;;;;9.75;3.17;;;;;;;-1.32;100.00;102711.91;7389520;19;20137;-41
2023/02/27 02:54:59;;;;;;;12.35;2.88;;;;;;;-1.17;100.00;102712.88;7385901;19;21008;-42
2023/02/27 02:57:32;;;;;;;6.55;2.63;;;;;;;-1.29;100.00;102707.25;7381854;19;20145;-41
2023/02/27 03:00:04;;;;;;;6.82;3.35;;;;;;;-1.67;100.00;102701.84;7386122;19;20189;-40
2023/02/27 03:02:37;;;;;;;4.57;2.58;;;;;;;-1.61;100.00;102697.53;7380247;19;20147;-41
2023/02/27 03:05:09;;;;;;;8.60;2.80;;;;;;;-1.39;100.00;102695.97;7386723;19;20143;-42
2023/02/27 03:07:40;;;;;;;10.30;3.80;;;;;;;-1.13;100.00;102695.69;7384163;19;20615;-41
2023/02/27 03:10:16;;;;;;;10.82;3.50;;;;;;;-0.80;100.00;102694.47;7390863;19;20200;-44
2023/02/27 03:12:48;;;;;;;10.10;3.20;;;;;;;-0.93;100.00;102699.69;7385665;19;20195;-42
2023/02/27 03:15:21;;;;;;;9.55;2.55;;;;;;;-1.11;100.00;102688.28;7391753;19;20146;-42
2023/02/27 03:17:54;;;;;;;7.97;3.42;;;;;;;-1.33;100.00;102705.03;7387943;19;20190;-43
2023/02/27 03:20:25;;;;;;;6.40;3.15;;;;;;;-1.36;100.00;102701.44;7390276;19;20174;-41
2023/02/27 03:22:58;;;;;;;6.75;3.10;;;;;;;-1.40;100.00;102698.31;7387726;19;20542;-43
2023/02/27 03:25:31;;;;;;;10.30;2.80;;;;;;;-1.63;100.00;102704.94;7398704;19;20171;-40
2023/02/27 03:28:03;;;;;;;6.40;3.25;;;;;;;-1.67;100.00;102704.38;7394090;19;20925;-42
2023/02/27 03:30:34;;;;;;;5.00;3.10;;;;;;;-1.53;100.00;102706.06;7397764;19;20171;-43
2023/02/27 03:33:08;;;;;;;7.93;3.50;;;;;;;-1.69;100.00;102705.81;7394034;19;20207;-43
2023/02/27 03:35:45;;;;;;;9.55;2.92;;;;;;;-2.35;100.00;102705.41;7398597;19;20142;-39
2023/02/27 03:38:20;;;;;;;7.70;3.55;;;;;;;-2.89;100.00;102711.28;7392911;19;20198;-42
2023/02/27 03:40:57;;;;;;;13.05;3.13;;;;;;;-3.10;100.00;102709.44;7396577;19;20291;-43
2023/02/27 03:43:32;;;;;;;12.15;5.03;;;;;;;-3.05;100.00;102713.47;7391636;19;20193;-43
2023/02/27 03:46:06;;;;;;;10.88;3.28;;;;;;;-2.81;100.00;102719.84;7399675;19;20604;-43
2023/02/27 03:48:36;;;;;;;9.32;3.35;;;;;;;-2.63;100.00;102724.72;7393158;19;20190;-41
2023/02/27 03:51:05;;;;;;;8.23;3.20;;;;;;;-2.55;100.00;102725.69;7396231;19;20170;-41
2023/02/27 03:53:38;;;;;;;7.90;3.20;;;;;;;-2.14;100.00;102726.53;7392898;19;20190;-41
2023/02/27 03:56:10;;;;;;;9.32;4.00;;;;;;;-2.18;100.00;102722.72;7400091;19;20139;-42
2023/02/27 03:58:40;;;;;;;11.38;4.00;;;;;;;-2.02;100.00;102726.25;7394131;19;20194;-43
2023/02/27 04:01:09;;;;;;;11.52;3.90;;;;;;;-1.86;100.00;102735.00;7398251;19;20201;-43
2023/02/27 04:03:43;;;;;;;13.27;4.50;;;;;;;-1.54;100.00;102740.59;7386169;19;20609;-41
2023/02/27 04:09:02;;;;;;;38.47;15.73;;;;;;;-1.42;100.00;102743.75;7393104;19;20223;-41
2023/02/27 04:12:08;;;;;;;12.80;4.35;;;;;;;-1.74;100.00;102740.69;7395741;19;20185;-41
2023/02/27 04:14:51;;;;;;;9.75;4.35;;;;;;;-2.24;100.00;102744.72;7395089;19;20194;-42
2023/02/27 04:17:24;;;;;;;8.48;4.22;;;;;;;-2.36;100.00;102754.19;7398304;19;20540;-42
2023/02/27 04:20:14;;;;;;;6.88;3.85;;;;;;;-2.49;100.00;102753.34;7397648;19;20192;-42
2023/02/27 04:22:47;;;;;;;10.02;4.47;;;;;;;-2.47;100.00;102764.56;7391590;19;20190;-42
2023/02/27 04:25:48;;;;;;;10.48;4.05;;;;;;;-2.45;100.00;102763.16;7397625;19;20142;-44
2023/02/27 04:28:26;;;;;;;11.52;4.43;;;;;;;-2.43;100.00;102761.72;7392396;19;20583;-43
2023/02/27 04:31:12;;;;;;;11.32;3.88;;;;;;;-2.44;100.00;102764.97;7397141;19;20676;-43
2023/02/27 04:33:45;;;;;;;10.73;4.25;;;;;;;-2.53;100.00;102778.94;7390942;19;20231;-40
2023/02/27 04:36:19;;;;;;;12.02;4.25;;;;;;;-2.44;100.00;102775.09;7397183;19;20139;-44
2023/02/27 04:38:51;;;;;;;9.95;4.38;;;;;;;-2.52;100.00;102785.84;7393931;19;20186;-42
2023/02/27 04:41:23;;;;;;;10.23;4.72;;;;;;;-2.48;100.00;102780.44;7394912;19;20660;-42
2023/02/27 04:43:56;;;;;;;9.88;4.28;;;;;;;-2.63;100.00;102787.91;7392581;19;20190;-41
2023/02/27 04:46:28;;;;;;;6.50;3.95;;;;;;;-2.73;100.00;102790.88;7397562;19;20139;-44
2023/02/27 04:49:01;;;;;;;10.10;4.20;;;;;;;-2.70;100.00;102780.25;7393464;19;20555;-44
2023/02/27 04:51:35;;;;;;;9.75;4.10;;;;;;;-2.77;100.00;102786.13;7395458;19;20679;-40
2023/02/27 04:54:08;;;;;;;16.10;5.05;;;;;;;-2.82;100.00;102788.78;7393178;19;20544;-42
2023/02/27 04:56:39;;;;;;;9.82;3.92;;;;;;;-2.79;100.00;102781.59;7397109;19;20156;-42
2023/02/27 04:59:15;;;;;;;8.75;4.68;;;;;;;-2.82;100.00;102781.22;7393103;19;20206;-43
2023/02/27 05:01:48;;;;;;;8.88;4.65;;;;;;;-2.82;100.00;102784.63;7394829;19;20169;-44
2023/02/27 05:04:21;;;;;;;10.90;4.28;;;;;;;-2.83;100.00;102785.34;7391314;19;20190;-45
2023/02/27 05:06:52;;;;;;;13.55;4.80;;;;;;;-2.75;100.00;102789.78;7397113;19;20202;-41
2023/02/27 05:09:28;;;;;;;12.27;5.18;;;;;;;-2.66;100.00;102781.56;7393222;19;20202;-44
2023/02/27 05:12:02;;;;;;;7.55;4.40;;;;;;;-2.41;100.00;102785.56;7395570;19;20166;-41
2023/02/27 05:14:38;;;;;;;10.65;4.97;;;;;;;-2.22;100.00;102786.28;7393485;19;20708;-45
2023/02/27 05:17:09;;;;;;;9.13;4.53;;;;;;;-2.22;100.00;102785.34;7397503;19;20150;-43
2023/02/27 05:19:40;;;;;;;10.52;4.65;;;;;;;-2.50;100.00;102787.88;7393675;19;20211;-42
2023/02/27 05:22:18;;;;;;;12.88;5.00;;;;;;;-2.65;100.00;102789.34;7396736;19;20210;-43
2023/02/27 05:24:52;;;;;;;13.43;4.47;;;;;;;-2.78;100.00;102791.91;7395851;19;20193;-42
2023/02/27 05:27:26;;;;;;;12.10;4.75;;;;;;;-2.76;100.00;102790.47;7393743;19;20145;-41
2023/02/27 05:30:00;;;;;;;11.88;5.35;;;;;;;-2.73;100.00;102790.88;7395958;19;20142;-42
2023/02/27 05:32:35;;;;;;;11.65;4.72;;;;;;;-2.75;100.00;102791.41;7392648;19;20134;-42
2023/02/27 05:35:12;;;;;;;10.02;5.00;;;;;;;-2.79;100.00;102787.56;7396618;19;20155;-41
2023/02/27 05:37:45;;;;;;;11.32;5.00;;;;;;;-2.83;100.00;102789.50;7392430;19;20209;-40
2023/02/27 05:40:18;;;;;;;12.63;5.20;;;;;;;-2.86;100.00;102783.34;7394221;19;20195;-43
2023/02/27 05:42:54;;;;;;;10.40;4.90;;;;;;;-2.86;100.00;102778.28;7390962;19;20219;-44
2023/02/27 05:45:29;;;;;;;15.57;5.20;;;;;;;-2.87;100.00;102781.53;7395313;19;20163;-44
2023/02/27 05:48:02;;;;;;;8.20;4.32;;;;;;;-2.93;100.00;102785.78;7387568;19;20193;-41
2023/02/27 05:50:34;;;;;;;12.40;5.38;;;;;;;-2.89;100.00;102780.44;7394456;19;20177;-44
2023/02/27 05:53:06;;;;;;;10.75;5.18;;;;;;;-2.74;100.00;102775.50;7391849;19;20186;-42
2023/02/27 05:55:38;;;;;;;12.25;5.72;;;;;;;-2.86;100.00;102780.81;7395256;19;20139;-44
2023/02/27 05:58:14;;;;;;;15.82;5.60;;;;;;;-2.93;100.00;102778.22;7392276;19;20190;-43
2023/02/27 06:00:49;;;;;;;12.57;5.78;;;;;;;-2.87;100.00;102775.59;7394017;19;20206;-41
2023/02/27 06:03:19;;;;;;;12.45;5.55;;;;;;;-2.84;100.00;102781.00;7388715;19;20205;-41
2023/02/27 06:05:51;;;;;;;12.27;5.68;;;;;;;-2.83;100.00;102777.78;7395057;19;20139;-37
2023/02/27 06:08:22;;;;;;;13.43;5.00;;;;;;;-2.82;100.00;102778.69;7390170;19;20200;-41
2023/02/27 06:10:54;;;;;;;9.70;5.53;;;;;;;-2.72;100.00;102781.69;7395012;19;20174;-44
2023/02/27 06:13:24;;;;;;;11.95;5.50;;;;;;;-2.79;100.00;102785.03;7390002;19;20284;-43
2023/02/27 06:15:56;;;;;;;14.07;6.15;;;;;;;-2.67;100.00;102778.09;7395079;19;20143;-41
2023/02/27 06:18:26;;;;;;;12.95;6.13;;;;;;;-2.51;100.00;102773.38;7391239;19;20190;-44
2023/02/27 06:20:56;;;;;;;14.23;6.03;;;;;;;-2.61;100.00;102780.53;7394183;19;20644;-41
2023/02/27 06:23:25;;;;;;;11.60;5.97;;;;;;;-2.72;100.00;102786.75;7389119;19;20667;-44
2023/02/27 06:25:55;;;;;;;16.83;5.50;;;;;;;-2.68;100.00;102788.94;7394992;19;20176;-44
2023/02/27 06:28:24;;;;;;;13.32;5.65;;;;;;;-2.63;100.00;102786.97;7390228;19;20194;-44
2023/02/27 06:30:57;;;;;;;13.00;5.90;;;;;;;-2.59;100.00;102792.66;7393811;19;20183;-42
2023/02/27 06:33:27;;;;;;;8.98;5.60;;;;;;;-2.72;100.00;102794.34;7389649;19;20525;-42
2023/02/27 06:35:56;;;;;;;10.50;6.18;;;;;;;-2.63;100.00;102792.03;7394412;19;20194;-44
2023/02/27 06:38:26;;;;;;;15.82;6.40;;;;;;;-2.72;100.00;102794.34;7390024;19;20217;-40
2023/02/27 06:40:55;;;;;;;15.43;6.50;;;;;;;-2.78;100.00;102793.53;7392845;19;20170;-42
2023/02/27 06:43:25;;;;;;;13.77;6.53;;;;;;;-2.73;100.00;102805.13;7388400;19;20190;-43
2023/02/27 06:45:57;;;;;;;15.95;6.20;;;;;;;-2.71;100.00;102808.78;7394134;19;20139;-43
2023/02/27 06:48:27;;;;;;;14.15;6.53;;;;;;;-2.65;100.00;102808.63;7389334;19;20573;-38
2023/02/27 06:50:57;;;;;;;8.75;5.60;;;;;;;-2.62;100.00;102804.88;7393004;19;20533;-40
2023/02/27 06:53:27;;;;;;;14.50;6.47;;;;;;;-2.57;100.00;102810.53;7388787;19;20245;-44
2023/02/27 06:55:56;;;;;;;13.10;6.80;;;;;;;-2.52;100.00;102819.59;7393867;19;20147;-39
2023/02/27 06:58:26;;;;;;;16.30;6.63;;;;;;;-2.54;100.00;102812.53;7387742;19;20193;-42
2023/02/27 07:01:00;;;;;;;20.77;7.70;;;;;;;-2.52;100.00;102816.19;7392955;19;20174;-42
2023/02/27 07:03:30;;;;;;;13.18;6.85;;;;;;;-2.63;100.00;102823.28;7387640;19;20205;-39
2023/02/27 07:06:01;;;;;;;13.40;6.63;;;;;;;-2.58;100.00;102821.34;7393938;19;20135;-42
2023/02/27 07:08:30;;;;;;;15.65;7.20;;;;;;;-2.52;100.00;102823.78;7389014;19;20200;-41
2023/02/27 07:11:00;;;;;;;14.23;7.28;;;;;;;-2.52;100.00;102816.19;7392513;19;20639;-44
2023/02/27 07:13:29;;;;;;;19.83;6.85;;;;;;;-2.60;100.00;102818.63;7388142;19;20200;-44
2023/02/27 07:16:01;;;;;;;14.45;7.68;;;;;;;-2.47;100.00;102830.31;7393993;19;20151;-42
2023/02/27 07:18:31;;;;;;;22.45;7.45;;;;;;;-2.41;100.00;102835.25;7389025;19;20193;-44
2023/02/27 07:21:00;;;;;;;13.02;6.72;;;;;;;-2.41;100.00;102832.72;7392628;19;20199;-42
2023/02/27 07:23:31;;;;;;;18.52;7.18;;;;;;;-2.29;100.00;102831.75;7387814;19;20193;-42
2023/02/27 07:26:00;;;;;;;19.85;8.32;;;;;;;-2.24;100.00;102840.84;7393505;19;20143;-42
2023/02/27 07:28:30;;;;;;;18.58;7.20;;;;;;;-2.16;100.00;102836.72;7388590;19;20202;-43
2023/02/27 07:31:02;;;;;;;14.32;7.90;;;;;;;-2.01;100.00;102836.88;7392188;19;20195;-41
2023/02/27 07:33:32;;;;;;;17.13;9.15;;;;;;;-1.88;100.00;102844.34;7387754;19;20189;-43
2023/02/27 07:36:02;;;;;;;27.10;8.43;;;;;;;-1.83;100.00;102840.78;7393254;19;20127;-44
2023/02/27 07:38:31;;;;;;;26.42;8.70;;;;;;;-1.85;100.00;102835.53;7388572;19;20200;-40
2023/02/27 07:41:01;;;;;;;12.82;7.32;;;;;;;-1.79;100.00;102837.94;7391207;19;20178;-39
2023/02/27 07:43:30;;;;;;;16.42;7.13;;;;;;;-1.82;100.00;102847.66;7387035;19;20215;-44
2023/02/27 07:46:02;;;;;;;19.00;8.10;;;;;;;-1.77;100.00;102847.53;7393145;19;20134;-43
2023/02/27 07:48:32;;;;;;;13.32;6.78;;;;;;;-1.71;100.00;102854.97;7387483;19;20183;-44
2023/02/27 07:51:02;;;;;;;13.95;6.75;;;;;;;-1.67;100.00;102856.28;7391255;19;20182;-44
2023/02/27 07:53:31;;;;;;;17.50;7.20;;;;;;;-1.61;100.00;102851.06;7387469;19;20194;-42
2023/02/27 07:56:01;;;;;;;10.82;6.53;;;;;;;-1.59;100.00;102855.59;7392209;19;20139;-42
2023/02/27 07:58:30;;;;;;;12.60;6.95;;;;;;;-1.51;100.00;102852.41;7387802;19;20190;-44
2023/02/27 08:01:02;;;;;;;13.23;6.38;;;;;;;-1.34;100.00;102847.63;7391194;19;20199;-44
2023/02/27 08:03:31;;;;;;;15.77;7.07;;;;;;;-1.32;100.00;102849.63;7385700;19;20675;-44
2023/02/27 08:06:01;;;;;;;21.23;6.80;;;;;;;-1.23;100.00;102853.28;7392108;19;20150;-42
2023/02/27 08:08:31;;;;;;;17.27;6.90;;;;;;;-1.15;100.00;102859.28;7388851;19;20212;-43
2023/02/27 08:11:00;;;;;;;13.18;7.20;;;;;;;-1.03;100.00;102859.88;7397750;19;20177;-41
2023/02/27 08:13:30;;;;;;;14.13;6.13;;;;;;;-0.97;100.00;102855.56;7393917;19;20558;-39
2023/02/27 08:16:22;;;;;;;14.50;6.45;;;;;;;-0.86;100.00;102858.50;7398389;19;20134;-45
2023/02/27 08:18:51;;;;;;;14.32;7.22;;;;;;;-0.78;100.00;102856.91;7395020;19;20217;-42
2023/02/27 08:21:20;;;;;;;14.30;6.22;;;;;;;-0.69;100.00;102858.94;7396013;19;20174;-42
2023/02/27 08:23:50;;;;;;;17.08;6.50;;;;;;;-0.56;100.00;102866.38;7393657;19;20194;-43
2023/02/27 08:26:20;;;;;;;13.60;6.60;;;;;;;-0.43;100.00;102862.78;7397613;19;20975;-37
2023/02/27 08:28:49;;;;;;;21.20;7.63;;;;;;;-0.17;100.00;102854.84;7393710;19;20202;-42
2023/02/27 08:31:22;;;;;;;18.00;7.93;;;;;;;-0.07;100.00;102860.28;7396064;19;20170;-44
2023/02/27 08:33:51;;;;;;;11.30;6.00;;;;;;;-0.02;100.00;102865.91;7393715;19;20194;-43
2023/02/27 08:36:37;;;;;;;11.47;4.90;;;;;;;0.05;100.00;102870.09;7397753;19;20596;-44
2023/02/27 08:39:07;;;;;;;10.60;5.55;;;;;;;0.09;100.00;102873.16;7394725;19;20447;-42
2023/02/27 08:41:37;;;;;;;12.93;5.30;;;;;;;0.19;100.00;102880.22;7395253;19;20195;-43
2023/02/27 08:44:06;;;;;;;11.73;5.50;;;;;;;0.29;100.00;102891.50;7393945;19;20810;-43
2023/02/27 08:46:38;;;;;;;11.88;5.75;;;;;;;0.36;100.00;102888.94;7397740;19;20149;-42
2023/02/27 08:49:08;;;;;;;12.32;4.97;;;;;;;0.46;100.00;102903.63;7394550;19;20532;-39
2023/02/27 08:51:37;;;;;;;11.10;4.88;;;;;;;0.53;100.00;102898.53;7395577;19;20174;-40
2023/02/27 08:54:07;;;;;;;10.68;5.03;;;;;;;0.58;100.00;102897.44;7393751;19;20554;-41
2023/02/27 08:56:36;;;;;;;13.55;5.45;;;;;;;0.68;100.00;102901.94;7397249;19;20134;-41
2023/02/27 08:59:06;;;;;;;11.33;5.57;;;;;;;0.80;100.00;102907.53;7394221;19;20211;-37
2023/02/27 09:01:35;;;;;;;17.27;5.10;;;;;;;0.89;100.00;102916.25;7395238;19;20414;-39
2023/02/27 09:04:08;;;;;;;22.23;5.90;;;;;;;1.00;100.00;102924.19;7391947;19;20446;-37
2023/02/27 09:06:38;;;;;;;11.47;4.70;;;;;;;1.09;100.00;102922.72;7397109;19;20395;-38
2023/02/27 09:09:08;;;;;;;9.37;3.97;;;;;;;1.18;100.00;102915.25;7393627;19;20472;-43
2023/02/27 09:11:37;;;;;;;7.93;3.77;;;;;;;1.28;100.00;102927.38;7395399;19;20782;-41
2023/02/27 09:14:07;;;;;;;9.87;3.70;;;;;;;1.33;100.00;102931.34;7393272;19;20443;-41
2023/02/27 09:16:37;;;;;;;12.63;3.70;;;;;;;1.40;100.00;102933.84;7396553;19;20415;-41
2023/02/27 09:19:09;;;;;;;14.83;4.17;;;;;;;1.40;100.00;102933.84;7393614;19;20464;-38
2023/02/27 09:21:38;;;;;;;10.30;3.90;;;;;;;1.40;100.00;102932.94;7393642;19;20435;-41
2023/02/27 09:24:09;;;;;;;7.43;3.07;;;;;;;1.49;100.00;102939.09;7392552;19;20446;-41
2023/02/27 09:26:48;;;;;;;6.60;3.20;;;;;;;1.61;100.00;102931.94;7396425;19;20972;-38
2023/02/27 09:29:18;;;;;;;8.73;3.60;;;;;;;1.62;100.00;102910.81;7392705;19;20982;-41
2023/02/27 09:31:48;;;;;;;14.20;4.50;;;;;;;1.71;100.00;102921.16;7394253;19;20454;-39
2023/02/27 09:34:20;;;;;;;7.90;3.43;;;;;;;1.74;100.00;102904.56;7391693;19;20450;-38
2023/02/27 09:36:50;;;;;;;10.73;2.97;;;;;;;1.88;100.00;102877.19;7396122;19;20404;-39
2023/02/27 09:39:20;;;;;;;14.63;3.40;;;;;;;1.98;100.00;102854.56;7391286;19;21037;-41
2023/02/27 09:41:57;;;;;;;11.23;2.60;;;;;;;1.99;100.00;102833.47;7394224;19;20447;-38
2023/02/27 09:44:33;;;;;;;13.03;3.70;;;;;;;2.08;100.00;102827.56;7391556;19;20457;-41
2023/02/27 09:47:17;;;;;;;14.50;4.37;;;;;;;2.21;100.00;102812.88;7394729;19;20473;-41
2023/02/27 09:50:08;;;;;;;9.20;3.10;;;;;;;2.29;100.00;102786.59;7394233;19;20465;-38
2023/02/27 09:52:39;;;;;;;8.47;3.07;;;;;;;2.40;100.00;102763.91;7391738;19;20403;-37
2023/02/27 09:55:15;;;;;;;5.83;2.93;;;;;;;2.45;100.00;102738.94;7392036;19;20411;-40
2023/02/27 09:57:48;;;;;;;8.03;3.37;;;;;;;2.46;100.00;102720.34;7390452;19;20435;-43
2023/02/27 10:00:29;;;;;;;12.30;3.60;;;;;;;2.34;100.00;102695.38;7396176;19;20456;-42
2023/02/27 10:03:02;;;;;;;14.77;4.57;;;;;;;2.33;100.00;102662.09;7389559;19;21262;-40
2023/02/27 10:05:38;;;;;;;7.20;2.53;;;;;;;2.41;100.00;102651.06;7393710;19;20776;-43
2023/02/27 10:08:13;;;;;;;8.20;3.30;;;;;;;2.50;100.00;102629.09;7392536;19;20456;-39
2023/02/27 10:10:49;;;;;;;8.23;2.50;;;;;;;2.53;100.00;102585.19;7394299;19;20431;-41
2023/02/27 10:13:35;;;;;;;14.47;3.17;;;;;;;2.48;100.00;102549.03;7389354;19;20443;-38
2023/02/27 10:16:06;;;;;;;8.13;2.90;;;;;;;2.47;100.00;102533.59;7393679;19;20407;-39
2023/02/27 10:18:41;;;;;;;4.93;2.17;;;;;;;2.52;100.00;102518.00;7390133;19;20449;-41
2023/02/27 10:21:17;;;;;;;10.70;2.30;;;;;;;2.62;100.00;102483.28;7393854;19;20431;-40
2023/02/27 10:23:52;;;;;;;11.10;2.40;;;;;;;2.78;100.00;102467.91;7390582;19;20435;-42
2023/02/27 10:26:23;;;;;;;7.43;2.20;;;;;;;2.77;100.00;102446.59;7392822;19;20411;-38
2023/02/27 10:28:53;;;;;;;7.93;2.50;;;;;;;2.88;100.00;102442.59;7390936;19;20439;-38
2023/02/27 10:31:26;;;;;;;15.23;5.50;;;;;;;3.01;100.00;102431.94;7391723;19;20431;-39
2023/02/27 10:33:57;;;;;;;9.13;2.50;;;;;;;3.14;100.00;102425.50;7389021;19;20460;-43
2023/02/27 10:36:30;;;;;;;16.03;2.63;;;;;;;3.22;100.00;102425.53;7394107;19;20400;-42
2023/02/27 10:39:06;;;;;;;6.90;2.27;;;;;;;3.22;100.00;102430.63;7390422;19;20518;-38
2023/02/27 10:41:36;;;;;;;7.23;2.03;;;;;;;3.41;100.00;102426.41;7392035;19;20771;-39
2023/02/27 10:44:08;;;;;;;8.13;2.30;;;;;;;3.59;100.00;102418.00;7390175;19;20460;-41
2023/02/27 10:46:39;;;;;;;5.13;1.83;;;;;;;3.50;100.00;102417.13;7392207;19;20415;-40
2023/02/27 10:49:16;;;;;;;5.23;1.83;;;;;;;3.40;100.00;102424.63;7390745;19;20858;-41
2023/02/27 10:52:06;;;;;;;4.90;2.00;;;;;;;3.40;100.00;102424.63;7392298;19;21107;-41
2023/02/27 10:54:36;;;;;;;5.03;1.70;;;;;;;3.45;100.00;102423.41;7389985;19;20455;-39
2023/02/27 10:57:09;;;;;;;6.47;2.73;;;;;;;3.38;100.00;102421.91;7394103;19;20789;-40
2023/02/27 10:59:40;;;;;;;9.17;3.10;;;;;;;3.59;100.00;102425.66;7389515;19;20468;-38
2023/02/27 11:02:23;;;;;;;6.27;2.03;;;;;;;3.67;100.00;102425.47;7391507;19;20436;-43
2023/02/27 11:04:55;;;;;;;10.57;2.70;;;;;;;3.58;100.00;102426.41;7393133;19;20439;-40
2023/02/27 11:07:36;;;;;;;11.00;5.00;;;;;;;3.76;100.00;102416.19;7388645;19;20411;-40
2023/02/27 11:10:18;;;;;;;13.40;4.37;;;;;;;3.73;100.00;102423.53;7393534;19;20427;-42
2023/02/27 11:13:00;;;;;;;6.63;2.50;;;;;;;3.66;100.00;102429.72;7387994;19;20419;-39
2023/02/27 11:15:31;;;;;;;12.57;3.03;;;;;;;3.74;100.00;102422.78;7392102;19;20411;-41
2023/02/27 11:18:20;;;;;;;11.67;3.47;;;;;;;3.82;100.00;102428.63;7389257;19;20435;-40
2023/02/27 11:20:51;;;;;;;10.00;3.60;;;;;;;3.91;100.00;102427.84;7391551;19;20501;-41
2023/02/27 11:23:24;;;;;;;8.20;3.03;;;;;;;3.92;100.00;102433.88;7386922;19;20473;-40
2023/02/27 11:26:11;;;;;;;10.23;3.23;;;;;;;3.97;100.00;102432.66;7392716;19;20407;-40
2023/02/27 11:28:40;;;;;;;8.70;3.53;;;;;;;4.01;100.00;102436.41;7388962;19;20458;-43
2023/02/27 11:31:17;;;;;;;10.53;3.50;;;;;;;3.97;100.00;102431.75;7392071;19;20437;-37
2023/02/27 11:33:51;;;;;;;12.43;3.00;;;;;;;4.04;100.00;102439.22;7388188;19;21100;-40
2023/02/27 11:36:22;;;;;;;6.50;2.53;;;;;;;4.00;100.00;102437.16;7391978;19;20402;-41
2023/02/27 11:38:55;;;;;;;13.90;3.70;;;;;;;3.99;100.00;102437.91;7388862;19;20439;-41
2023/02/27 11:41:31;;;;;;;6.60;3.10;;;;;;;3.90;100.00;102431.16;7390485;19;20436;-41
2023/02/27 11:44:02;;;;;;;10.27;2.93;;;;;;;3.98;100.00;102428.44;7392122;19;20447;-38
2023/02/27 11:46:31;;;;;;;8.33;3.00;;;;;;;3.88;100.00;102436.88;7398192;19;20433;-40